Penticton Airport
CYYF : now visible

Airfield :











YOU CAN JOIN US ON...

 
LOGIN :

Register | Disclaimer

   EN    FR    IT 

 









Legend :    VFR   Marginal VFR   IFR   Intensive IFR   Very Intensive IFR
Visi :
Ceiling :
>= 8 km
>= 3000ft
5 to 8 km
1000 to 3000 ft
1500m to 5 km
500 to 1000 ft
800 to 1500m
200 to 500 ft
< 800m
< 200 ft
Symbols :   Thunderstorms  Fog  Heavy snow  Heavy precipitations  Wind > 20 kt






- Airport Elevation : 1129 ft
- IATA code : YYF


CYYF - Penticton

CURRENT METAR :
  • 290400Z 27017G28KT 15SM SCT080 BKN140 15/03 A2994 RMK AC3AC2 PRESRR SLP141 DENSITY ALT 1500FT

EXPIRED METARs :
  • 290300Z 34007KT 310V020 15SM FEW100 BKN150 15/09 A2990 RMK AC3AC3 SLP129 DENSITY ALT 1500FT
  • 290200Z 32003KT 300V010 15SM SCT078 BKN150 17/10 A2989 RMK AC4AC2 SLP126 DENSITY ALT 1600FT
  • 290100Z 00000KT 15SM FEW050 SCT073 BKN099 16/09 A2988 RMK SC1AC2AC3 SLP123 DENSITY ALT 1600FT
  • 290016Z 32004KT 270V360 15SM FEW048 OVC088 15/10 A2989 RMK SC3AC5 SLP126 DENSITY ALT 1500FT

TAF TAF CYYF
Valid from the 29 at 01:00 until the 29 at 13:00 UTC


290040Z 2901/2913 32006KT P6SM SCT050 BKN080
TEMPO 2901/2904 BKN050 OVC080
FM290400 01008KT P6SM SCT030 RMK NXT FCST BY 290700Z
CZVR FIR / North America



MET'MAP, your aeronautical weather chart ! - Copyright ORBIFLY December 2007 - Disclaimer

ORBIFLY MET'MAP TEAM :

Programming & Development : Alexandra Zaïnal
Original concept : Baudouin d'Aumeries
Technical & hardware support : Manuel Goepfert
Assistance : Marc-Olivier Méhu




SOURCES & CREDITS :

   NOAA       Earth
Advisory